Time,TemperatureF,DewpointF,PressureIn,WindDirection,WindDirectionDegrees,WindSpeedMPH,WindSpeedGustMPH,Humidity,HourlyPrecipIn,Conditions,Clouds,dailyrainin,SoftwareType,DateUTC
2013-09-25 00:23:00,74.0,58.0,29.87,North,0,0.0,0.0,57,0.00,,,0.00,,2013-09-25 05:23:00,
2013-09-25 00:33:00,74.0,58.0,29.87,North,0,0.0,0.0,57,0.00,,,0.00,,2013-09-25 05:33:00,
2013-09-25 00:53:00,74.0,58.0,29.87,North,0,0.0,0.0,57,0.00,,,0.00,,2013-09-25 05:53:00,
2013-09-25 02:53:00,69.0,57.0,29.87,North,0,0.0,0.0,66,0.00,,,0.00,,2013-09-25 07:53:00,
2013-09-25 03:00:00,67.0,56.0,29.86,North,0,0.0,0.0,68,0.00,,,0.00,,2013-09-25 08:00:00,
2013-09-25 03:02:00,69.0,57.0,29.87,North,0,0.0,0.0,66,0.00,,,0.00,,2013-09-25 08:02:00,
2013-09-25 03:11:00,69.0,57.0,29.87,North,0,0.0,0.0,66,0.00,,,0.00,,2013-09-25 08:11:00,
2013-09-25 03:21:00,67.0,56.0,29.86,North,0,0.0,0.0,68,0.00,,,0.00,,2013-09-25 08:21:00,
2013-09-25 03:32:00,67.0,56.0,29.86,North,0,0.0,0.0,68,0.00,,,0.00,,2013-09-25 08:32:00,
2013-09-25 03:53:00,67.0,56.0,29.86,North,0,0.0,0.0,68,0.00,,,0.00,,2013-09-25 08:53:00,
2013-09-25 04:22:00,65.0,56.0,29.86,North,0,0.0,0.0,72,0.00,,,0.00,,2013-09-25 09:22:00,
2013-09-25 04:33:00,65.0,56.0,29.86,North,0,0.0,0.0,72,0.00,,,0.00,,2013-09-25 09:33:00,
2013-09-25 04:54:00,64.0,56.0,29.86,North,0,0.0,0.0,76,0.00,,,0.00,,2013-09-25 09:54:00,
2013-09-25 05:04:00,64.0,56.0,29.86,North,0,0.0,0.0,76,0.00,,,0.00,,2013-09-25 10:04:00,
2013-09-25 05:12:00,64.0,56.0,29.86,North,0,0.0,0.0,76,0.00,,,0.00,,2013-09-25 10:12:00,
2013-09-25 05:23:00,64.0,56.0,29.86,North,0,0.0,0.0,76,0.00,,,0.00,,2013-09-25 10:23:00,
2013-09-25 05:32:00,64.0,56.0,29.86,North,0,0.0,0.0,76,0.00,,,0.00,,2013-09-25 10:32:00,
2013-09-25 06:52:00,62.0,56.0,29.86,North,0,0.0,0.0,81,0.00,,,0.00,,2013-09-25 11:52:00,
2013-09-25 07:02:00,62.0,56.0,29.86,North,0,0.0,0.0,81,0.00,,,0.00,,2013-09-25 12:02:00,
2013-09-25 07:22:00,62.0,56.0,29.86,North,0,0.0,0.0,82,0.00,,,0.00,,2013-09-25 12:22:00,
2013-09-25 07:32:00,62.0,56.0,29.86,North,0,0.0,0.0,82,0.00,,,0.00,,2013-09-25 12:32:00,
2013-09-25 08:22:00,62.0,57.0,29.87,North,0,0.0,0.0,83,0.00,,,0.00,,2013-09-25 13:22:00,
2013-09-25 08:32:00,62.0,57.0,29.87,North,0,0.0,0.0,83,0.00,,,0.00,,2013-09-25 13:32:00,
2013-09-25 09:22:00,68.0,61.0,29.88,North,0,0.0,0.0,79,0.00,,,0.00,,2013-09-25 14:22:00,
2013-09-25 09:32:00,68.0,61.0,29.88,North,0,0.0,0.0,79,0.00,,,0.00,,2013-09-25 14:32:00,
2013-09-25 09:52:00,68.0,61.0,29.88,North,0,0.0,0.0,79,0.00,,,0.00,,2013-09-25 14:52:00,
2013-09-25 10:22:00,79.0,64.0,29.89,North,0,0.0,0.0,61,0.00,,,0.00,,2013-09-25 15:22:00,
2013-09-25 10:33:00,79.0,64.0,29.89,North,0,0.0,0.0,61,0.00,,,0.00,,2013-09-25 15:33:00,
2013-09-25 10:53:00,79.0,64.0,29.89,North,0,0.0,0.0,61,0.00,,,0.00,,2013-09-25 15:53:00,
2013-09-25 11:21:00,91.0,64.0,29.89,North,0,0.0,0.0,41,0.00,,,0.00,,2013-09-25 16:21:00,
2013-09-25 12:13:00,91.0,64.0,29.89,North,0,0.0,0.0,41,0.00,,,0.00,,2013-09-25 17:13:00,
2013-09-25 16:22:00,95.0,63.0,29.79,North,0,0.0,0.0,35,0.00,,,0.00,,2013-09-25 21:22:00,
2013-09-25 16:54:00,94.0,62.0,29.79,North,0,0.0,0.0,35,0.00,,,0.00,,2013-09-25 21:54:00,
2013-09-25 17:14:00,96.0,64.0,29.78,North,0,0.0,0.0,35,0.00,,,0.00,,2013-09-25 22:14:00,
2013-09-25 17:23:00,96.0,64.0,29.78,North,0,0.0,0.0,35,0.00,,,0.00,,2013-09-25 22:23:00,
2013-09-25 17:33:00,96.0,64.0,29.78,North,0,0.0,0.0,35,0.00,,,0.00,,2013-09-25 22:33:00,
2013-09-25 17:50:00,93.0,61.0,29.77,North,0,0.0,0.0,35,0.00,,,0.00,,2013-09-25 22:50:00,
2013-09-25 18:22:00,93.0,61.0,29.77,North,0,0.0,0.0,35,0.00,,,0.00,,2013-09-25 23:22:00,
2013-09-25 18:34:00,93.0,61.0,29.77,North,0,0.0,0.0,35,0.00,,,0.00,,2013-09-25 23:34:00,
2013-09-25 18:42:00,93.0,61.0,29.77,North,0,0.0,0.0,35,0.00,,,0.00,,2013-09-25 23:42:00,
2013-09-25 19:22:00,88.0,61.0,29.77,North,0,0.0,0.0,40,0.00,,,0.00,,2013-09-26 00:22:00,
2013-09-25 19:32:00,88.0,61.0,29.77,North,0,0.0,0.0,40,0.00,,,0.00,,2013-09-26 00:32:00,
2013-09-25 20:12:00,84.0,60.0,29.77,North,0,0.0,0.0,45,0.00,,,0.00,,2013-09-26 01:12:00,
2013-09-25 20:22:00,84.0,60.0,29.77,North,0,0.0,0.0,45,0.00,,,0.00,,2013-09-26 01:22:00,
2013-09-25 20:52:00,80.0,59.0,29.78,North,0,0.0,0.0,48,0.00,,,0.00,,2013-09-26 01:52:00,
2013-09-25 21:12:00,79.0,59.0,29.78,North,0,0.0,0.0,51,0.00,,,0.00,,2013-09-26 02:12:00,
2013-09-25 21:21:00,79.0,59.0,29.78,North,0,0.0,0.0,51,0.00,,,0.00,,2013-09-26 02:21:00,
2013-09-25 22:12:00,77.0,59.0,29.80,North,0,0.0,0.0,54,0.00,,,0.00,,2013-09-26 03:12:00,
2013-09-25 22:22:00,77.0,59.0,29.80,North,0,0.0,0.0,54,0.00,,,0.00,,2013-09-26 03:22:00,
2013-09-25 22:34:00,77.0,59.0,29.80,North,0,0.0,0.0,54,0.00,,,0.00,,2013-09-26 03:34:00,
2013-09-25 22:40:00,76.0,59.0,29.81,North,0,0.0,0.0,56,0.00,,,0.00,,2013-09-26 03:40:00,
2013-09-25 23:14:00,76.0,59.0,29.81,North,0,0.0,0.0,56,0.00,,,0.00,,2013-09-26 04:14:00,
2013-09-25 23:24:00,76.0,59.0,29.81,North,0,0.0,0.0,56,0.00,,,0.00,,2013-09-26 04:24:00,
2013-09-25 23:34:00,76.0,59.0,29.81,North,0,0.0,0.0,56,0.00,,,0.00,,2013-09-26 04:34:00,